Time;durP1;ratioP1;P1;durP2;ratioP2;P2;SDS_P1;SDS_P2;PMS_P1;PMS_P2;Temp;Humidity;BMP_temperature;BMP_pressure;BME280_temperature;BME280_humidity;BME280_pressure;Samples;Min_cycle;Max_cycle;Signal;HPM_P1;HPM_P2
2021/10/23 00:01:03;;;;;;;5.85;2.20;;;;;;;9.43;79.95;101374.56;5029600;28;20075;-76
2021/10/23 00:03:28;;;;;;;5.90;2.35;;;;;;;9.34;80.52;101370.00;5027981;28;20649;-76
2021/10/23 00:05:54;;;;;;;7.25;2.30;;;;;;;9.32;80.90;101369.31;5029420;28;20034;-76
2021/10/23 00:08:19;;;;;;;3.35;1.63;;;;;;;9.34;80.22;101365.59;5028413;28;20083;-76
2021/10/23 00:10:44;;;;;;;4.45;2.00;;;;;;;9.30;80.63;101374.72;5029673;28;20510;-76
2021/10/23 00:13:10;;;;;;;5.38;2.10;;;;;;;9.32;80.66;101374.59;5029446;28;20052;-76
2021/10/23 00:15:36;;;;;;;4.03;2.17;;;;;;;9.35;80.32;101374.34;5027049;28;20030;-76
2021/10/23 00:18:01;;;;;;;4.32;2.28;;;;;;;9.33;80.43;101368.34;5029478;28;20034;-76
2021/10/23 00:20:27;;;;;;;5.60;2.55;;;;;;;9.23;83.00;101373.53;5029014;28;20429;-76
2021/10/23 00:22:52;;;;;;;7.43;2.53;;;;;;;9.34;80.87;101373.53;5028186;28;20056;-76
2021/10/23 00:25:19;;;;;;;7.15;2.28;;;;;;;9.37;80.23;101377.72;5028327;28;20095;-77
2021/10/23 00:27:44;;;;;;;5.50;1.85;;;;;;;9.34;80.58;101385.84;5028056;28;20115;-76
2021/10/23 00:30:10;;;;;;;7.07;2.67;;;;;;;9.34;80.29;101381.44;5028825;28;20518;-77
2021/10/23 00:32:37;;;;;;;7.82;2.30;;;;;;;9.33;80.63;101381.53;5027029;28;20025;-76
2021/10/23 00:35:03;;;;;;;5.47;2.20;;;;;;;9.35;80.35;101380.47;5025896;28;20033;-76
2021/10/23 00:37:28;;;;;;;7.97;2.42;;;;;;;9.31;80.26;101386.09;5028100;28;20037;-77
2021/10/23 00:39:54;;;;;;;5.18;2.20;;;;;;;9.27;80.57;101384.66;5029238;28;20104;-77
2021/10/23 00:42:19;;;;;;;5.32;2.50;;;;;;;9.29;80.31;101391.50;5028919;28;20033;-76
2021/10/23 00:44:45;;;;;;;6.53;2.70;;;;;;;9.31;80.54;101394.03;5027863;28;20037;-76
2021/10/23 00:47:12;;;;;;;6.57;2.97;;;;;;;9.29;80.38;101399.41;5029107;28;20632;-77
2021/10/23 00:49:38;;;;;;;8.85;2.90;;;;;;;9.25;80.41;101397.16;5028166;28;20041;-76
2021/10/23 00:52:06;;;;;;;6.78;3.05;;;;;;;9.25;80.38;101405.09;5028668;28;20041;-76
2021/10/23 00:54:33;;;;;;;5.13;2.65;;;;;;;9.18;81.74;101401.25;5027742;28;20057;-76
2021/10/23 00:56:59;;;;;;;4.10;2.63;;;;;;;9.20;81.12;101400.16;5029179;28;20310;-76
2021/10/23 00:59:25;;;;;;;6.63;2.50;;;;;;;9.16;82.23;101413.72;5029073;28;20109;-76
2021/10/23 01:01:51;;;;;;;8.07;2.90;;;;;;;9.02;83.96;101409.53;5028817;28;20145;-76
2021/10/23 01:04:19;;;;;;;5.85;2.88;;;;;;;9.13;81.97;101409.53;5028771;28;20034;-76
2021/10/23 01:06:45;;;;;;;6.82;2.60;;;;;;;9.20;81.19;101415.13;5028799;28;20034;-77
2021/10/23 01:09:10;;;;;;;6.47;2.80;;;;;;;9.14;81.32;101403.28;5028884;28;20060;-76
2021/10/23 01:11:36;;;;;;;4.70;2.55;;;;;;;9.17;81.49;101415.41;5029147;28;20242;-76
2021/10/23 01:14:01;;;;;;;6.57;2.80;;;;;;;9.15;81.23;101418.13;5026736;28;20378;-76
2021/10/23 01:16:27;;;;;;;6.40;2.75;;;;;;;9.14;81.31;101417.31;5020223;28;20064;-76
2021/10/23 01:18:52;;;;;;;6.43;2.67;;;;;;;9.11;81.50;101417.56;5031425;28;20053;-76
2021/10/23 01:21:22;;;;;;;5.18;2.65;;;;;;;9.13;81.19;101423.56;5031317;28;20426;-76
2021/10/23 01:23:48;;;;;;;6.95;2.97;;;;;;;9.10;81.37;101422.94;5032941;28;20029;-76
2021/10/23 01:26:13;;;;;;;7.28;2.95;;;;;;;9.11;81.17;101425.47;5031730;28;20033;-76
2021/10/23 01:28:39;;;;;;;5.38;2.63;;;;;;;9.05;81.75;101428.56;5032411;28;20030;-76
2021/10/23 01:31:04;;;;;;;7.47;2.92;;;;;;;9.08;81.71;101432.78;5032609;28;20031;-77
2021/10/23 01:33:29;;;;;;;5.88;2.95;;;;;;;9.07;81.95;101428.47;5027840;28;20055;-76
2021/10/23 01:36:08;;;;;;;9.32;3.20;;;;;;;9.04;81.83;101439.28;5032360;28;20428;-76
2021/10/23 01:38:33;;;;;;;6.63;2.90;;;;;;;9.01;81.78;101431.56;5032398;28;20029;-77
2021/10/23 01:40:58;;;;;;;7.22;3.38;;;;;;;9.02;81.84;101434.09;5032859;28;20168;-77
2021/10/23 01:43:24;;;;;;;8.40;3.10;;;;;;;9.00;81.92;101428.09;5032542;28;20032;-77
2021/10/23 01:45:49;;;;;;;4.97;2.85;;;;;;;8.93;82.17;101438.28;5032518;28;20076;-77
2021/10/23 01:48:14;;;;;;;7.25;3.00;;;;;;;8.98;81.86;101435.28;5026103;28;20030;-77
2021/10/23 01:50:39;;;;;;;9.05;3.70;;;;;;;9.00;81.79;101437.81;5032756;28;20481;-76
2021/10/23 01:53:05;;;;;;;8.68;3.30;;;;;;;8.98;82.02;101443.19;5032371;28;20030;-77
2021/10/23 01:55:30;;;;;;;5.22;3.15;;;;;;;8.93;81.94;101442.72;5031213;28;20043;-77
2021/10/23 01:57:57;;;;;;;6.50;3.55;;;;;;;8.94;82.08;101439.16;5032610;28;20104;-76
2021/10/23 02:00:22;;;;;;;5.05;2.80;;;;;;;8.91;81.80;101431.44;5031649;28;20067;-77
2021/10/23 02:02:48;;;;;;;5.70;2.80;;;;;;;8.83;82.73;101433.84;5032713;28;20521;-77
2021/10/23 02:05:14;;;;;;;8.05;3.63;;;;;;;8.81;82.31;101433.13;5032194;28;20052;-77
2021/10/23 02:07:39;;;;;;;7.55;3.42;;;;;;;8.76;82.01;101428.19;5031509;28;20029;-77
2021/10/23 02:10:06;;;;;;;8.02;3.38;;;;;;;8.68;82.47;101426.16;5033119;28;20079;-77
2021/10/23 02:12:32;;;;;;;6.00;2.90;;;;;;;8.66;82.63;101430.69;5032646;28;20028;-76
2021/10/23 02:14:57;;;;;;;9.65;3.33;;;;;;;8.63;82.76;101445.94;5027933;28;20013;-77
2021/10/23 02:17:22;;;;;;;9.15;3.38;;;;;;;8.51;84.11;101442.44;5031663;28;20026;-76
2021/10/23 02:19:47;;;;;;;6.30;2.78;;;;;;;8.46;84.79;101437.50;5032448;28;20121;-76
2021/10/23 02:22:13;;;;;;;6.07;2.80;;;;;;;8.41;86.40;101447.53;5032345;28;20068;-77
2021/10/23 02:24:38;;;;;;;6.35;3.00;;;;;;;8.37;85.27;101438.16;5030300;28;20017;-77
2021/10/23 02:27:03;;;;;;;8.05;3.45;;;;;;;8.34;85.39;101446.28;5025888;28;20113;-77
2021/10/23 02:29:29;;;;;;;6.63;3.03;;;;;;;8.38;83.90;101439.00;5026827;28;20374;-76
2021/10/23 02:31:54;;;;;;;6.55;3.00;;;;;;;8.26;86.82;101449.47;5027364;28;20029;-76
2021/10/23 02:34:19;;;;;;;5.72;3.10;;;;;;;8.16;87.13;101443.22;5028204;28;20255;-76
2021/10/23 02:36:45;;;;;;;5.25;3.05;;;;;;;8.14;85.83;101441.66;5028689;28;20176;-76
2021/10/23 02:39:10;;;;;;;6.22;2.85;;;;;;;8.13;85.50;101440.81;5027399;28;20120;-77
2021/10/23 02:41:35;;;;;;;6.78;2.95;;;;;;;8.05;87.63;101443.16;5028491;28;20032;-77
2021/10/23 02:44:01;;;;;;;7.30;3.28;;;;;;;8.00;88.93;101451.41;5029473;28;20117;-77
2021/10/23 02:46:26;;;;;;;6.13;3.10;;;;;;;7.98;87.33;101457.75;5028875;28;20033;-77
2021/10/23 02:48:52;;;;;;;7.65;3.10;;;;;;;7.85;89.30;101461.28;5029777;28;20034;-77
2021/10/23 02:51:17;;;;;;;5.72;2.92;;;;;;;7.79;89.98;101464.34;5031119;28;20507;-76
2021/10/23 02:53:43;;;;;;;5.05;2.63;;;;;;;7.81;89.57;101464.22;5031415;28;20467;-77
2021/10/23 02:56:08;;;;;;;4.40;2.55;;;;;;;7.84;87.38;101454.34;5030459;28;20056;-77
2021/10/23 02:58:33;;;;;;;6.22;2.65;;;;;;;7.88;86.78;101460.19;5030962;28;20041;-76
2021/10/23 03:00:59;;;;;;;6.35;2.80;;;;;;;7.87;86.56;101453.28;5031173;28;20087;-77
2021/10/23 03:03:24;;;;;;;4.80;2.78;;;;;;;7.86;86.43;101457.69;5030702;28;20079;-77
2021/10/23 03:05:50;;;;;;;5.82;2.63;;;;;;;7.87;86.14;101450.63;5030773;28;20639;-77
2021/10/23 03:08:15;;;;;;;4.70;2.60;;;;;;;7.80;87.07;101442.34;5030595;28;20033;-77
2021/10/23 03:10:41;;;;;;;7.22;2.63;;;;;;;7.77;87.60;101447.84;5031188;28;20029;-77
2021/10/23 03:13:06;;;;;;;4.07;2.47;;;;;;;7.73;87.89;101442.91;5030521;28;20087;-77
2021/10/23 03:15:32;;;;;;;6.22;3.33;;;;;;;7.71;86.60;101440.38;5030521;28;20029;-77
2021/10/23 03:17:57;;;;;;;6.78;2.90;;;;;;;7.69;86.65;101444.91;5029185;28;20032;-77
2021/10/23 03:20:22;;;;;;;5.40;2.90;;;;;;;7.66;86.11;101439.84;5030147;28;20038;-77
2021/10/23 03:22:48;;;;;;;6.03;3.30;;;;;;;7.61;86.70;101432.28;5029124;28;20116;-77
2021/10/23 03:25:13;;;;;;;5.65;3.35;;;;;;;7.60;86.46;101420.09;5030669;28;20068;-77
2021/10/23 03:27:39;;;;;;;7.75;3.80;;;;;;;7.56;86.58;101423.06;5030417;28;20056;-77
2021/10/23 03:30:06;;;;;;;5.43;3.13;;;;;;;7.54;87.36;101417.91;5029063;28;20037;-77
2021/10/23 03:32:31;;;;;;;5.57;3.13;;;;;;;7.50;86.99;101415.59;5030184;28;20041;-77
2021/10/23 03:35:00;;;;;;;8.13;3.20;;;;;;;7.42;89.68;101430.13;5030153;28;20115;-77
2021/10/23 03:37:28;;;;;;;7.55;3.53;;;;;;;7.35;90.08;101433.31;5028753;28;20128;-77
2021/10/23 03:39:53;;;;;;;9.20;3.28;;;;;;;7.27;89.93;101428.59;5035325;28;20064;-76
2021/10/23 03:42:19;;;;;;;6.03;3.10;;;;;;;7.21;89.85;101431.66;5034448;28;20033;-76
2021/10/23 03:44:44;;;;;;;6.78;3.25;;;;;;;7.08;90.78;101434.31;5035527;28;20033;-77
2021/10/23 03:47:10;;;;;;;6.68;3.33;;;;;;;7.00;90.91;101432.19;5030223;28;20116;-76
2021/10/23 03:49:35;;;;;;;6.45;3.08;;;;;;;6.93;90.12;101430.94;5030439;28;20463;-76
2021/10/23 03:52:01;;;;;;;5.30;2.90;;;;;;;6.90;90.26;101439.03;5030038;28;20112;-77
2021/10/23 03:54:26;;;;;;;5.22;3.53;;;;;;;6.85;90.36;101432.44;5029853;28;20059;-77
2021/10/23 03:56:52;;;;;;;8.10;3.70;;;;;;;6.93;88.48;101435.34;5030156;28;20038;-77
2021/10/23 03:59:18;;;;;;;8.07;3.13;;;;;;;6.90;90.01;101439.03;5030307;28;20444;-76
2021/10/23 04:01:43;;;;;;;7.68;3.40;;;;;;;6.89;90.56;101454.91;5030446;28;20029;-76
2021/10/23 04:04:08;;;;;;;4.68;3.03;;;;;;;6.89;89.61;101449.66;5029301;28;20088;-77
2021/10/23 04:06:34;;;;;;;8.38;3.55;;;;;;;6.85;91.30;101463.97;5027917;28;20083;-77
2021/10/23 04:08:59;;;;;;;7.57;3.58;;;;;;;6.90;88.80;101454.81;5028586;28;20034;-77
2021/10/23 04:11:24;;;;;;;8.27;3.45;;;;;;;6.89;89.07;101455.78;5029716;28;20029;-76
2021/10/23 04:13:50;;;;;;;10.35;4.03;;;;;;;6.92;88.63;101447.66;5030317;28;20029;-76
2021/10/23 04:16:15;;;;;;;8.25;3.88;;;;;;;6.91;88.80;101448.63;5029253;28;20037;-77
2021/10/23 04:18:40;;;;;;;8.18;4.30;;;;;;;6.94;88.88;101451.03;5029806;28;20067;-77
2021/10/23 04:21:06;;;;;;;8.52;4.32;;;;;;;6.87;89.80;101457.66;5029609;28;20117;-76
2021/10/23 04:23:31;;;;;;;6.82;3.42;;;;;;;6.81;89.99;101458.06;5028547;28;20398;-76
2021/10/23 04:25:56;;;;;;;4.88;3.08;;;;;;;6.78;89.80;101466.16;5029558;28;20494;-76
2021/10/23 04:28:21;;;;;;;4.72;3.13;;;;;;;6.76;90.65;101471.53;5028020;28;20188;-77
2021/10/23 04:30:47;;;;;;;8.00;3.70;;;;;;;6.78;89.61;101471.44;5029916;28;20037;-76
2021/10/23 04:33:12;;;;;;;6.90;3.10;;;;;;;6.76;91.35;101475.94;5029696;28;20104;-76
2021/10/23 04:35:37;;;;;;;4.57;2.83;;;;;;;6.77;90.96;101489.00;5029608;28;20038;-77
2021/10/23 04:38:03;;;;;;;6.38;3.10;;;;;;;6.77;91.01;101496.03;5029678;28;20036;-77
2021/10/23 04:40:28;;;;;;;7.65;3.40;;;;;;;6.81;90.09;101500.13;5029125;28;20440;-77
2021/10/23 04:42:53;;;;;;;6.82;3.83;;;;;;;6.81;89.42;101505.38;5029798;28;20049;-77
2021/10/23 04:45:19;;;;;;;4.97;3.05;;;;;;;6.78;89.91;101508.22;5029318;28;20038;-77
2021/10/23 04:47:44;;;;;;;6.38;2.80;;;;;;;6.76;91.35;101515.38;5029269;28;20402;-77
2021/10/23 04:50:09;;;;;;;5.40;3.47;;;;;;;6.80;90.47;101509.81;5029383;28;20041;-77
2021/10/23 04:52:35;;;;;;;7.28;3.60;;;;;;;6.81;90.54;101500.97;5030002;28;20026;-77
2021/10/23 04:55:00;;;;;;;6.00;3.47;;;;;;;6.85;89.14;101500.78;5034135;28;20044;-76
2021/10/23 04:57:25;;;;;;;9.27;3.88;;;;;;;6.80;90.79;101495.81;5032404;28;20027;-77
2021/10/23 04:59:51;;;;;;;7.15;3.30;;;;;;;6.80;91.92;101504.56;5034437;28;20029;-76
2021/10/23 05:02:16;;;;;;;6.38;3.55;;;;;;;6.84;91.43;101507.81;5031962;28;20045;-77
2021/10/23 05:04:41;;;;;;;4.95;3.05;;;;;;;6.83;91.94;101515.81;5032519;28;20372;-77
2021/10/23 05:07:08;;;;;;;7.05;3.60;;;;;;;6.69;91.86;101511.47;5033882;28;20512;-77
2021/10/23 05:09:33;;;;;;;7.28;3.53;;;;;;;6.56;92.75;101519.34;5033670;28;20029;-77
2021/10/23 05:11:58;;;;;;;6.72;4.00;;;;;;;6.46;92.84;101513.84;5033714;28;20425;-76
2021/10/23 05:14:23;;;;;;;5.82;3.42;;;;;;;6.41;92.73;101526.41;5031875;28;20493;-77
2021/10/23 05:16:49;;;;;;;5.50;3.63;;;;;;;6.37;92.44;101522.31;5033594;28;20116;-77
2021/10/23 05:19:14;;;;;;;8.15;4.20;;;;;;;6.42;90.52;101528.13;5032936;28;20030;-77
2021/10/23 05:21:39;;;;;;;7.28;3.00;;;;;;;6.34;92.19;101533.00;5033786;28;20129;-77
2021/10/23 05:24:05;;;;;;;6.88;3.03;;;;;;;6.31;92.29;101533.22;5032749;28;20063;-77
2021/10/23 05:26:30;;;;;;;8.35;3.90;;;;;;;6.14;92.55;101532.53;5033268;28;20038;-77
2021/10/23 05:28:55;;;;;;;8.07;4.00;;;;;;;6.10;93.21;101538.06;5033842;28;20030;-77
2021/10/23 05:31:21;;;;;;;9.70;4.15;;;;;;;6.16;90.57;101533.25;5033593;28;20120;-77
2021/10/23 05:33:46;;;;;;;7.40;4.00;;;;;;;6.13;90.35;101536.09;5033206;28;20045;-77
2021/10/23 05:36:11;;;;;;;14.55;4.82;;;;;;;6.15;90.00;101541.25;5032953;28;20508;-77
2021/10/23 05:38:37;;;;;;;6.85;4.13;;;;;;;6.06;90.97;101545.31;5033641;28;20484;-77
2021/10/23 05:41:02;;;;;;;6.78;3.78;;;;;;;6.01;93.10;101536.06;5033147;28;20033;-77
2021/10/23 05:43:27;;;;;;;7.10;3.50;;;;;;;6.03;92.84;101540.25;5032024;28;20079;-77
2021/10/23 05:45:53;;;;;;;5.50;3.75;;;;;;;5.95;92.08;101537.25;5032940;28;20126;-77
2021/10/23 05:48:18;;;;;;;8.45;4.05;;;;;;;5.87;92.50;101535.09;5032583;28;20222;-77
2021/10/23 05:50:44;;;;;;;6.95;4.15;;;;;;;5.76;93.64;101542.78;5033526;28;20040;-77
2021/10/23 05:53:09;;;;;;;6.53;3.78;;;;;;;5.71;94.53;101537.81;5033076;28;20124;-77
2021/10/23 05:55:34;;;;;;;5.70;4.10;;;;;;;5.73;94.24;101529.88;5032586;28;20038;-77
2021/10/23 05:58:02;;;;;;;8.02;4.40;;;;;;;5.68;93.14;101527.53;5032026;28;20621;-77
2021/10/23 06:00:27;;;;;;;8.05;4.63;;;;;;;5.61;92.41;101530.63;5032736;28;20082;-77
2021/10/23 06:02:55;;;;;;;7.57;4.53;;;;;;;5.53;93.47;101534.56;5033145;28;20183;-78
2021/10/23 06:05:20;;;;;;;6.00;4.38;;;;;;;5.50;94.30;101542.59;5030332;28;20418;-77
2021/10/23 06:07:46;;;;;;;7.03;4.28;;;;;;;5.49;95.38;101540.09;5032643;28;20029;-77
2021/10/23 06:10:12;;;;;;;6.13;3.70;;;;;;;5.56;93.09;101538.78;5032410;28;20040;-77
2021/10/23 06:12:38;;;;;;;4.50;3.17;;;;;;;5.59;93.20;101538.59;5032929;28;20034;-77
2021/10/23 06:15:04;;;;;;;6.97;3.90;;;;;;;5.62;92.14;101538.38;5032646;28;20387;-77
2021/10/23 06:17:29;;;;;;;9.77;4.28;;;;;;;5.65;91.46;101535.59;5032246;28;20040;-77
2021/10/23 06:19:55;;;;;;;8.23;4.15;;;;;;;5.68;91.26;101527.53;5032997;28;20029;-77
2021/10/23 06:22:21;;;;;;;7.93;4.05;;;;;;;5.70;91.42;101536.16;5032631;28;20036;-78
2021/10/23 06:24:46;;;;;;;7.05;4.03;;;;;;;5.69;92.34;101538.84;5031148;28;20038;-77
2021/10/23 06:27:12;;;;;;;10.05;4.32;;;;;;;5.72;92.03;101542.16;5032648;28;20129;-77
2021/10/23 06:29:37;;;;;;;7.22;3.80;;;;;;;5.74;93.03;101548.16;5032992;28;20097;-77
2021/10/23 06:32:03;;;;;;;6.28;3.75;;;;;;;5.73;94.16;101550.84;5031910;28;20042;-77
2021/10/23 06:34:29;;;;;;;6.65;4.25;;;;;;;5.63;94.08;101555.84;5032558;28;20030;-78
2021/10/23 06:36:55;;;;;;;7.18;4.47;;;;;;;5.59;94.26;101551.72;5032604;28;20033;-77
2021/10/23 06:39:20;;;;;;;7.07;4.00;;;;;;;5.62;94.67;101567.25;5031830;28;20034;-77
2021/10/23 06:41:46;;;;;;;8.05;4.20;;;;;;;5.72;94.46;101565.78;5032365;28;20092;-77
2021/10/23 06:44:11;;;;;;;9.20;4.65;;;;;;;5.70;94.19;101575.50;5032142;28;20043;-77
2021/10/23 06:46:38;;;;;;;5.95;4.15;;;;;;;5.78;94.51;101575.03;5030764;28;20522;-77
2021/10/23 06:49:04;;;;;;;6.35;3.58;;;;;;;5.86;94.11;101580.63;5032128;28;20568;-77
2021/10/23 06:51:29;;;;;;;6.80;4.22;;;;;;;5.82;93.96;101602.78;5032304;28;20095;-77
2021/10/23 06:53:56;;;;;;;5.82;4.35;;;;;;;5.83;94.22;101601.84;5031650;28;20037;-77
2021/10/23 06:56:23;;;;;;;7.93;4.30;;;;;;;5.94;94.58;101622.22;5031493;28;20045;-77
2021/10/23 06:58:48;;;;;;;9.82;4.47;;;;;;;6.22;93.17;101625.72;5031789;28;20029;-77
2021/10/23 07:01:13;;;;;;;9.65;5.03;;;;;;;6.41;93.32;101623.63;5030612;28;20140;-78
2021/10/23 07:03:39;;;;;;;8.90;5.00;;;;;;;6.64;92.25;101630.03;5031584;28;20362;-77
2021/10/23 07:06:04;;;;;;;9.75;4.75;;;;;;;6.76;93.16;101638.91;5031322;28;20068;-77
2021/10/23 07:08:29;;;;;;;8.25;4.93;;;;;;;6.90;92.80;101645.91;5031109;28;20041;-77
2021/10/23 07:10:55;;;;;;;10.07;4.45;;;;;;;7.00;94.02;101650.44;5031816;28;20038;-77
2021/10/23 07:13:20;;;;;;;6.72;4.07;;;;;;;7.12;94.00;101654.06;5031712;28;20079;-77
2021/10/23 07:15:45;;;;;;;6.05;4.10;;;;;;;7.21;93.85;101652.63;5031480;28;20426;-77
2021/10/23 07:18:11;;;;;;;7.57;4.20;;;;;;;7.36;93.76;101656.00;5030819;28;20040;-78
2021/10/23 07:20:36;;;;;;;6.47;3.90;;;;;;;7.49;93.59;101648.97;5030288;28;20060;-77
2021/10/23 07:23:02;;;;;;;7.03;4.47;;;;;;;7.64;92.69;101652.34;5031472;28;20108;-77
2021/10/23 07:25:28;;;;;;;8.07;4.32;;;;;;;7.81;92.20;101652.03;5029814;28;20057;-77
2021/10/23 07:27:53;;;;;;;8.13;4.75;;;;;;;7.91;91.00;101643.47;5031491;28;20169;-77
2021/10/23 07:30:19;;;;;;;8.00;4.22;;;;;;;7.96;90.68;101649.28;5029066;28;20045;-77
2021/10/23 07:32:44;;;;;;;7.45;4.45;;;;;;;8.12;90.29;101654.31;5030987;28;20033;-77
2021/10/23 07:35:11;;;;;;;9.05;3.88;;;;;;;8.20;90.02;101651.97;5030978;28;20060;-77
2021/10/23 07:37:36;;;;;;;8.00;4.72;;;;;;;8.33;89.48;101651.97;5031684;28;20064;-77
2021/10/23 07:40:04;;;;;;;7.57;4.07;;;;;;;8.43;89.10;101647.72;5030921;28;20061;-77
2021/10/23 07:42:29;;;;;;;6.43;4.15;;;;;;;8.52;88.90;101639.16;5031354;28;20033;-77
2021/10/23 07:44:56;;;;;;;8.65;5.25;;;;;;;8.54;87.78;101647.81;5031246;28;20060;-77
2021/10/23 07:47:22;;;;;;;7.57;4.70;;;;;;;8.61;87.84;101642.94;5031669;28;20069;-77
2021/10/23 07:49:47;;;;;;;9.82;5.25;;;;;;;8.67;87.71;101645.13;5031507;28;20498;-77
2021/10/23 07:52:13;;;;;;;8.88;4.47;;;;;;;8.67;87.47;101648.59;5030283;28;20033;-77
2021/10/23 07:54:39;;;;;;;8.07;4.53;;;;;;;8.74;87.07;101645.50;5031640;28;20494;-77
2021/10/23 07:57:05;;;;;;;9.38;4.70;;;;;;;8.84;87.35;101655.28;5030843;28;20038;-77
2021/10/23 07:59:31;;;;;;;9.13;4.68;;;;;;;8.92;87.10;101674.03;5029678;28;20033;-77
2021/10/23 08:01:58;;;;;;;9.32;4.78;;;;;;;9.20;85.87;101679.03;5030818;28;20042;-77
2021/10/23 08:04:23;;;;;;;9.85;4.93;;;;;;;9.34;85.20;101684.13;5030744;28;20438;-77
2021/10/23 08:06:49;;;;;;;10.25;4.78;;;;;;;9.42;86.10;101689.69;5031230;28;20105;-77
2021/10/23 08:09:14;;;;;;;9.63;4.63;;;;;;;9.56;84.50;101692.13;5029938;28;20498;-77
2021/10/23 08:11:42;;;;;;;8.50;4.63;;;;;;;9.49;85.25;101700.63;5029386;28;20094;-77
2021/10/23 08:14:08;;;;;;;11.45;5.00;;;;;;;9.72;83.98;101690.94;5030804;28;20394;-77
2021/10/23 08:16:34;;;;;;;11.90;5.13;;;;;;;9.77;83.45;101691.41;5031167;28;20025;-77
2021/10/23 08:18:59;;;;;;;11.38;4.97;;;;;;;9.91;83.52;101707.03;5031291;28;20034;-77
2021/10/23 08:21:25;;;;;;;9.88;4.80;;;;;;;9.98;82.89;101713.53;5031728;28;20037;-77
2021/10/23 08:23:50;;;;;;;9.88;4.93;;;;;;;10.05;82.28;101700.69;5031157;28;20156;-77
2021/10/23 08:26:15;;;;;;;7.68;4.03;;;;;;;10.09;81.70;101693.38;5030727;28;20041;-77
2021/10/23 08:28:41;;;;;;;10.18;4.72;;;;;;;10.12;82.09;101695.78;5030091;28;20043;-77
2021/10/23 08:31:06;;;;;;;9.10;4.10;;;;;;;10.34;82.64;101703.72;5030897;28;20042;-77
2021/10/23 08:33:31;;;;;;;7.50;4.25;;;;;;;10.37;80.99;101705.31;5029303;28;20030;-77
2021/10/23 08:35:57;;;;;;;7.50;4.20;;;;;;;10.48;80.63;101712.38;5030375;28;20498;-77
2021/10/23 08:38:22;;;;;;;9.60;5.00;;;;;;;10.41;80.42;101710.22;5030091;28;20471;-77
2021/10/23 08:40:48;;;;;;;10.75;4.20;;;;;;;10.69;80.43;101715.94;5031872;28;20029;-77
2021/10/23 08:43:14;;;;;;;11.43;4.70;;;;;;;10.67;80.76;101712.59;5031028;28;20030;-77
2021/10/23 08:45:39;;;;;;;12.70;4.65;;;;;;;10.38;79.23;101707.81;5030984;28;20518;-77
2021/10/23 08:48:06;;;;;;;8.25;4.10;;;;;;;10.31;78.64;101721.66;5028668;28;20034;-77
2021/10/23 08:50:31;;;;;;;6.93;3.72;;;;;;;10.45;80.10;101712.63;5029668;28;20034;-77
2021/10/23 08:53:00;;;;;;;6.45;3.83;;;;;;;10.45;80.16;101713.47;5030367;28;20034;-77
2021/10/23 08:55:26;;;;;;;9.77;4.60;;;;;;;10.56;80.72;101717.91;5031975;28;20033;-77
2021/10/23 08:57:52;;;;;;;10.73;4.45;;;;;;;10.54;79.39;101723.31;5038385;28;20477;-78
2021/10/23 09:00:18;;;;;;;7.45;4.07;;;;;;;10.56;79.11;101728.50;5037671;28;20034;-77
2021/10/23 09:02:43;;;;;;;8.05;4.30;;;;;;;10.78;79.97;101732.91;5039566;28;20047;-77
2021/10/23 09:05:09;;;;;;;7.78;4.05;;;;;;;10.96;78.64;101735.84;5034696;28;20068;-77
2021/10/23 09:07:48;;;;;;;7.00;3.85;;;;;;;10.98;78.19;101745.34;5031530;28;20371;-77
2021/10/23 09:10:29;;;;;;;7.57;4.32;;;;;;;11.20;78.42;101735.66;5029548;28;20098;-77
2021/10/23 09:13:03;;;;;;;8.20;4.10;;;;;;;11.36;76.55;101751.97;5031200;28;20034;-77
2021/10/23 09:15:41;;;;;;;9.82;4.40;;;;;;;11.42;76.89;101750.63;5028011;28;20062;-77
2021/10/23 09:18:10;;;;;;;6.57;3.80;;;;;;;11.44;77.01;101746.88;5029151;28;20025;-77
2021/10/23 09:20:40;;;;;;;6.82;3.80;;;;;;;11.31;77.86;101748.84;5028012;28;20030;-76
2021/10/23 09:23:16;;;;;;;5.65;3.80;;;;;;;11.48;77.21;101745.63;5029282;28;20049;-77
2021/10/23 09:25:42;;;;;;;8.70;4.13;;;;;;;11.73;76.96;101750.69;5029289;28;20026;-77
2021/10/23 09:28:27;;;;;;;9.02;4.25;;;;;;;11.69;74.46;101745.66;5028334;28;20041;-76
2021/10/23 09:30:53;;;;;;;9.88;4.78;;;;;;;11.78;75.48;101749.34;5029116;28;20498;-77
2021/10/23 09:33:19;;;;;;;9.88;4.20;;;;;;;11.82;75.25;101750.78;5029258;28;20032;-77
2021/10/23 09:35:56;;;;;;;10.38;3.88;;;;;;;11.85;74.24;101753.16;5028974;28;20076;-76
2021/10/23 09:38:26;;;;;;;8.60;4.25;;;;;;;11.84;74.57;101754.13;5028243;28;20040;-76
2021/10/23 09:40:55;;;;;;;6.22;3.50;;;;;;;11.86;75.29;101754.81;5031069;28;20025;-76
2021/10/23 09:43:22;;;;;;;6.43;3.65;;;;;;;12.02;74.98;101750.94;5032313;28;20406;-76
2021/10/23 09:45:56;;;;;;;9.18;4.32;;;;;;;12.09;74.64;101746.78;5032606;28;20048;-77
2021/10/23 09:48:37;;;;;;;8.05;3.97;;;;;;;11.93;73.40;101751.72;5031791;28;20045;-76
2021/10/23 09:51:14;;;;;;;;;;;;;;;12.19;73.80;101746.81;5031540;28;20033;-77
2021/10/23 09:53:41;;;;;;;7.63;4.22;;;;;;;11.99;73.54;101757.34;5032478;28;20007;-76
2021/10/23 09:56:14;;;;;;;6.53;3.53;;;;;;;11.95;72.97;101758.56;5031627;28;20441;-77
2021/10/23 09:59:00;;;;;;;6.75;3.22;;;;;;;12.05;73.69;101759.44;5032282;28;20039;-76
2021/10/23 10:01:29;;;;;;;10.18;4.00;;;;;;;12.40;72.75;101754.75;5030872;28;20034;-77
2021/10/23 10:04:06;;;;;;;6.72;3.50;;;;;;;12.38;73.06;101743.41;5032081;28;20037;-77
2021/10/23 10:06:32;;;;;;;8.45;3.85;;;;;;;12.53;72.57;101739.41;5030345;28;20040;-77
2021/10/23 10:08:58;;;;;;;11.27;4.40;;;;;;;12.59;71.95;101740.69;5032145;28;20071;-76
2021/10/23 10:11:23;;;;;;;7.07;3.90;;;;;;;12.67;72.36;101744.34;5032103;28;20029;-76
2021/10/23 10:13:50;;;;;;;6.47;3.70;;;;;;;12.66;70.88;101745.31;5031946;28;20420;-77
2021/10/23 10:16:16;;;;;;;7.32;3.45;;;;;;;12.56;71.95;101748.91;5030077;28;20033;-76
2021/10/23 10:18:42;;;;;;;5.78;2.95;;;;;;;12.55;71.48;101742.78;5030936;28;20031;-76
2021/10/23 10:21:19;;;;;;;4.70;2.72;;;;;;;12.39;70.92;101742.44;5031431;28;20398;-76
2021/10/23 10:23:45;;;;;;;5.40;2.90;;;;;;;12.64;70.82;101739.31;5033337;28;20033;-76
2021/10/23 10:26:31;;;;;;;7.97;2.85;;;;;;;12.45;69.82;101733.94;5030986;28;20439;-76
2021/10/23 10:29:06;;;;;;;5.55;2.28;;;;;;;12.03;69.41;101728.72;5033021;28;20067;-76
2021/10/23 10:31:53;;;;;;;5.07;2.20;;;;;;;11.76;71.08;101735.38;5031654;28;20033;-76
2021/10/23 10:35:10;;;;;;;5.28;2.42;;;;;;;11.98;70.87;101725.63;5032126;28;20060;-76
2021/10/23 10:43:14;;;;;;;5.75;2.70;;;;;;;12.66;69.83;101725.91;5032253;28;20387;-76
2021/10/23 10:48:08;;;;;;;4.50;2.20;;;;;;;13.02;67.73;101728.91;5031410;28;20112;-77
2021/10/23 10:50:35;;;;;;;4.93;2.65;;;;;;;12.84;65.85;101723.44;5030197;28;20116;-76
2021/10/23 10:53:23;;;;;;;5.03;2.55;;;;;;;12.71;67.19;101726.34;5031624;28;20505;-77
2021/10/23 10:56:04;;;;;;;5.10;2.10;;;;;;;12.56;68.88;101728.53;5030108;28;20269;-76
2021/10/23 10:58:50;;;;;;;5.90;2.40;;;;;;;12.72;67.68;101726.19;5030857;28;20591;-76
2021/10/23 11:01:17;;;;;;;5.22;2.75;;;;;;;12.74;66.96;101734.84;5030895;28;20042;-76
2021/10/23 11:03:47;;;;;;;4.93;2.53;;;;;;;12.70;66.75;101730.81;5030876;28;20071;-76
2021/10/23 11:06:31;;;;;;;4.38;2.20;;;;;;;12.87;67.72;101724.00;5030393;28;20033;-76
2021/10/23 11:11:43;;;;;;;7.05;2.72;;;;;;;12.88;65.25;101728.31;5031227;28;20049;-76
2021/10/23 11:14:09;;;;;;;4.72;2.33;;;;;;;13.04;65.38;101730.44;5030357;28;20032;-76
2021/10/23 11:16:37;;;;;;;3.63;1.85;;;;;;;13.06;65.49;101730.28;5030513;28;20536;-76
2021/10/23 11:19:03;;;;;;;3.25;1.60;;;;;;;13.15;66.45;101724.16;5030537;28;20038;-76
2021/10/23 11:21:31;;;;;;;4.78;1.80;;;;;;;13.23;65.31;101729.63;5030970;28;20543;-76
2021/10/23 11:23:56;;;;;;;2.97;1.60;;;;;;;13.37;64.35;101729.25;5031004;28;20280;-76
2021/10/23 11:26:21;;;;;;;5.28;1.80;;;;;;;13.47;63.84;101725.75;5028733;28;20212;-76
2021/10/23 11:28:47;;;;;;;3.67;1.90;;;;;;;13.49;63.34;101724.63;5030653;28;20083;-77
2021/10/23 11:31:18;;;;;;;4.32;1.60;;;;;;;13.30;63.89;101725.47;5030665;28;20037;-77
2021/10/23 11:33:43;;;;;;;4.50;1.80;;;;;;;13.25;64.84;101725.00;5030696;28;20040;-76
2021/10/23 11:36:19;;;;;;;4.22;1.67;;;;;;;13.05;63.35;101729.47;5028855;28;20034;-77
2021/10/23 11:38:49;;;;;;;6.82;1.98;;;;;;;13.30;63.43;101730.78;5030479;28;20033;-77
2021/10/23 11:41:22;;;;;;;5.30;1.70;;;;;;;13.29;62.96;101728.25;5030438;28;20099;-76